createdAt,value
2023-01-03T00:02:00.706Z,24.63
2023-01-03T00:04:27.755Z,27.95
2023-01-03T00:06:54.775Z,22.50
2023-01-03T00:09:23.416Z,29.92
2023-01-03T00:12:10.488Z,30.02
2023-01-03T00:14:40.514Z,29.65
2023-01-03T00:17:07.622Z,27.80
2023-01-03T00:19:37.093Z,24.35
2023-01-03T00:22:04.062Z,22.95
2023-01-03T00:24:31.022Z,22.63
2023-01-03T00:26:57.780Z,21.42
2023-01-03T00:29:24.635Z,20.80
2023-01-03T00:31:51.405Z,18.50
2023-01-03T00:34:18.218Z,20.25
2023-01-03T00:36:44.988Z,25.15
2023-01-03T00:39:14.461Z,25.75
2023-01-03T00:41:41.325Z,20.67
2023-01-03T00:44:08.233Z,22.90
2023-01-03T00:46:35.081Z,24.80
2023-01-03T00:49:02.190Z,26.60
2023-01-03T00:51:30.511Z,24.77
2023-01-03T00:53:58.121Z,21.60
2023-01-03T00:56:26.783Z,25.45
2023-01-03T00:58:53.566Z,23.08
2023-01-03T01:01:25.464Z,23.75
2023-01-03T01:03:59.915Z,23.75
2023-01-03T01:06:28.902Z,26.08
2023-01-03T01:08:56.690Z,26.92
2023-01-03T01:11:23.547Z,25.40
2023-01-03T01:13:50.504Z,27.02
2023-01-03T01:16:20.667Z,28.20
2023-01-03T01:18:48.582Z,34.33
2023-01-03T01:21:17.688Z,27.48
2023-01-03T01:23:44.886Z,26.75
2023-01-03T01:26:13.925Z,22.75
2023-01-03T01:28:40.946Z,25.08
2023-01-03T01:31:07.983Z,22.75
2023-01-03T01:33:35.763Z,22.73
2023-01-03T01:36:16.206Z,26.40
2023-01-03T01:38:43.363Z,22.95
2023-01-03T01:41:13.474Z,19.50
2023-01-03T01:44:18.419Z,20.02
2023-01-03T01:46:45.293Z,18.50
2023-01-03T01:49:15.885Z,18.30
2023-01-03T01:51:42.675Z,36.67
2023-01-03T01:54:09.439Z,22.98
2023-01-03T01:56:54.315Z,19.67
2023-01-03T01:59:21.050Z,21.58
2023-01-03T02:01:48.438Z,13.15
2023-01-03T02:04:24.383Z,14.68
2023-01-03T02:06:51.835Z,11.82
2023-01-03T02:09:18.582Z,11.20
2023-01-03T02:11:45.382Z,12.48
2023-01-03T02:14:31.113Z,14.88
2023-01-03T02:17:43.098Z,13.90
2023-01-03T02:20:36.301Z,17.98
2023-01-03T02:23:31.096Z,22.08
2023-01-03T02:26:21.246Z,23.40
2023-01-03T02:29:14.470Z,20.23
2023-01-03T02:31:50.075Z,20.83
2023-01-03T02:34:23.732Z,25.73
2023-01-03T02:36:53.267Z,20.88
2023-01-03T02:39:27.326Z,22.80
2023-01-03T02:42:18.797Z,23.80
2023-01-03T02:45:02.044Z,21.02
2023-01-03T02:47:28.842Z,20.10
2023-01-03T02:49:55.634Z,21.05
2023-01-03T02:52:24.525Z,22.65
2023-01-03T02:55:06.093Z,19.15
2023-01-03T02:57:49.030Z,18.52
2023-01-03T03:00:17.121Z,18.20
2023-01-03T03:02:50.129Z,17.30
2023-01-03T03:05:26.160Z,19.23
2023-01-03T03:07:53.000Z,18.60
2023-01-03T03:10:38.006Z,17.77
2023-01-03T03:13:16.097Z,14.45
2023-01-03T03:16:02.613Z,18.83
2023-01-03T03:18:51.326Z,20.58
2023-01-03T03:21:36.961Z,15.32
2023-01-03T03:24:43.724Z,18.23
2023-01-03T03:27:30.083Z,21.40
2023-01-03T03:29:57.982Z,15.10
2023-01-03T03:32:25.138Z,15.43
2023-01-03T03:34:51.921Z,12.95
2023-01-03T03:37:19.314Z,18.70
2023-01-03T03:40:04.952Z,15.82
2023-01-03T03:43:02.816Z,18.27
2023-01-03T03:45:41.521Z,17.00
2023-01-03T03:48:15.862Z,16.70
2023-01-03T03:51:08.760Z,16.20
2023-01-03T03:53:36.086Z,15.00
2023-01-03T03:56:11.065Z,11.77
2023-01-03T03:58:40.881Z,15.45
2023-01-03T04:01:08.352Z,16.50
2023-01-03T04:03:35.295Z,15.20
2023-01-03T04:06:05.786Z,17.38
2023-01-03T04:08:32.521Z,16.88
2023-01-03T04:11:05.811Z,14.05
2023-01-03T04:13:33.744Z,17.90
2023-01-03T04:16:00.502Z,22.60
2023-01-03T04:18:27.344Z,17.67
2023-01-03T04:20:54.232Z,14.95
2023-01-03T04:23:21.213Z,17.38
2023-01-03T04:25:50.863Z,13.40
2023-01-03T04:28:18.046Z,14.73
2023-01-03T04:30:44.964Z,13.23
2023-01-03T04:33:11.818Z,13.15
2023-01-03T04:35:38.617Z,16.60
2023-01-03T04:38:05.598Z,14.35
2023-01-03T04:40:34.713Z,16.88
2023-01-03T04:43:19.908Z,17.33
2023-01-03T04:45:48.830Z,19.17
2023-01-03T04:48:15.995Z,14.70
2023-01-03T04:50:42.817Z,22.67
2023-01-03T04:53:10.221Z,18.17
2023-01-03T04:55:37.025Z,22.58
2023-01-03T04:58:03.738Z,17.52
2023-01-03T05:00:30.467Z,18.33
2023-01-03T05:02:57.179Z,24.23
2023-01-03T05:05:23.937Z,20.23
2023-01-03T05:07:50.686Z,21.73
2023-01-03T05:10:17.535Z,21.40
2023-01-03T05:12:59.758Z,23.08
2023-01-03T05:15:27.922Z,27.40
2023-01-03T05:17:54.788Z,20.85
2023-01-03T05:20:48.447Z,14.65
2023-01-03T05:23:34.954Z,18.05
2023-01-03T05:26:04.877Z,18.23
2023-01-03T05:28:31.639Z,19.63
2023-01-03T05:30:59.014Z,16.95
2023-01-03T05:33:25.853Z,18.92
2023-01-03T05:35:52.781Z,18.30
2023-01-03T05:38:19.780Z,20.45
2023-01-03T05:40:46.605Z,13.27
2023-01-03T05:43:13.382Z,23.67
2023-01-03T05:45:40.320Z,21.42
2023-01-03T05:48:07.833Z,14.20
2023-01-03T05:50:34.728Z,15.05
2023-01-03T05:53:01.494Z,15.75
2023-01-03T05:55:28.215Z,15.00
2023-01-03T05:57:54.956Z,23.10
2023-01-03T06:00:21.841Z,21.42
2023-01-03T06:02:48.722Z,13.63
2023-01-03T06:05:15.624Z,14.40
2023-01-03T06:07:42.444Z,13.40
2023-01-03T06:10:09.716Z,12.38
2023-01-03T06:12:36.511Z,15.82
2023-01-03T06:15:03.461Z,13.98
2023-01-03T06:17:49.063Z,17.35
2023-01-03T06:20:15.901Z,12.55
2023-01-03T06:22:42.719Z,16.63
2023-01-03T06:25:10.235Z,17.90
2023-01-03T06:27:36.957Z,19.08
2023-01-03T06:30:04.173Z,18.33
2023-01-03T06:32:31.057Z,18.77
2023-01-03T06:34:57.774Z,16.92
2023-01-03T06:37:24.585Z,14.75
2023-01-03T06:39:51.309Z,39.42
2023-01-03T06:42:36.901Z,107.70
2023-01-03T06:45:22.736Z,48.97
2023-01-03T06:48:08.309Z,22.88
2023-01-03T06:50:53.859Z,24.23
2023-01-03T06:53:21.642Z,25.80
2023-01-03T06:55:54.549Z,21.08
2023-01-03T06:58:23.432Z,24.70
2023-01-03T07:00:50.289Z,19.13
2023-01-03T07:03:17.110Z,18.25
2023-01-03T07:05:43.965Z,22.90
2023-01-03T07:08:10.841Z,22.10
2023-01-03T07:10:37.649Z,19.52
2023-01-03T07:13:23.205Z,21.33
2023-01-03T07:15:50.229Z,21.77
2023-01-03T07:18:17.028Z,15.95
2023-01-03T07:20:44.186Z,19.58
2023-01-03T07:23:11.671Z,18.50
2023-01-03T07:25:41.359Z,18.83
2023-01-03T07:28:11.697Z,15.05
2023-01-03T07:30:45.305Z,13.68
2023-01-03T07:33:13.285Z,14.82
2023-01-03T07:35:40.039Z,14.63
2023-01-03T07:38:07.053Z,12.60
2023-01-03T07:40:33.923Z,12.27
2023-01-03T07:43:19.134Z,11.48
2023-01-03T07:45:46.069Z,11.75
2023-01-03T07:48:12.994Z,13.93
2023-01-03T07:50:39.985Z,19.27
2023-01-03T07:53:07.559Z,47.40
2023-01-03T07:55:35.545Z,27.02
2023-01-03T07:58:02.634Z,10.32
2023-01-03T08:00:29.410Z,8.82
2023-01-03T08:02:56.368Z,11.00
2023-01-03T08:05:23.717Z,10.65
2023-01-03T08:07:51.152Z,13.27
2023-01-03T08:10:36.673Z,20.38
2023-01-03T08:13:18.876Z,25.73
2023-01-03T08:15:49.503Z,19.90
2023-01-03T08:18:17.671Z,22.85
2023-01-03T08:20:44.570Z,29.30
2023-01-03T08:23:11.399Z,19.70
2023-01-03T08:25:38.325Z,21.98
2023-01-03T08:28:06.046Z,14.70
2023-01-03T08:30:32.836Z,19.42
2023-01-03T08:33:02.066Z,12.18
2023-01-03T08:35:30.651Z,12.38
2023-01-03T08:37:58.693Z,15.05
2023-01-03T08:40:25.520Z,27.67
2023-01-03T08:42:52.309Z,27.63
2023-01-03T08:45:19.196Z,30.92
2023-01-03T08:47:46.125Z,31.67
2023-01-03T08:50:13.262Z,32.83
2023-01-03T08:52:40.275Z,56.97
2023-01-03T08:55:08.332Z,55.40
2023-01-03T08:57:35.200Z,35.45
2023-01-03T09:00:02.257Z,34.58
2023-01-03T09:02:29.342Z,32.22
2023-01-03T09:04:56.342Z,30.98
2023-01-03T09:07:23.166Z,31.73
2023-01-03T09:09:50.021Z,33.90
2023-01-03T09:12:16.822Z,40.45
2023-01-03T09:14:43.646Z,28.92
2023-01-03T09:17:10.436Z,28.55
2023-01-03T09:19:37.182Z,30.90
2023-01-03T09:22:04.037Z,28.33
2023-01-03T09:24:30.860Z,29.85
2023-01-03T09:26:57.655Z,11.98
2023-01-03T09:29:24.526Z,10.95
2023-01-03T09:31:51.812Z,20.67
2023-01-03T09:34:18.903Z,19.55
2023-01-03T09:36:45.668Z,14.52
2023-01-03T09:39:12.577Z,10.38
2023-01-03T09:41:39.382Z,12.32
2023-01-03T09:44:07.422Z,26.75
2023-01-03T09:46:35.378Z,22.15
2023-01-03T09:49:02.449Z,26.42
2023-01-03T09:51:48.203Z,7.93
2023-01-03T09:54:45.511Z,7.15
2023-01-03T09:57:35.328Z,15.88
2023-01-03T10:00:21.088Z,8.98
2023-01-03T10:03:11.257Z,13.13
2023-01-03T10:06:04.084Z,11.75
2023-01-03T10:08:54.205Z,17.08
2023-01-03T10:11:32.902Z,11.40
2023-01-03T10:14:08.936Z,18.40
2023-01-03T10:17:15.039Z,16.95
2023-01-03T10:20:33.255Z,9.55
2023-01-03T10:23:00.545Z,7.10
2023-01-03T10:25:30.531Z,13.73
2023-01-03T10:28:02.674Z,6.72
2023-01-03T10:30:44.320Z,6.82
2023-01-03T10:33:19.072Z,8.00
2023-01-03T10:35:45.868Z,51.47
2023-01-03T10:38:14.949Z,19.50
2023-01-03T10:40:47.739Z,7.22
2023-01-03T10:43:20.556Z,10.55
2023-01-03T10:46:01.570Z,9.07
2023-01-03T10:49:16.808Z,11.63
2023-01-03T10:54:27.128Z,8.80
2023-01-03T10:56:54.011Z,9.60
2023-01-03T10:59:24.629Z,8.77
2023-01-03T11:02:13.618Z,11.23
2023-01-03T11:04:40.730Z,13.80
2023-01-03T11:07:13.414Z,6.65
2023-01-03T11:09:51.613Z,5.80
2023-01-03T11:12:40.027Z,8.20
2023-01-03T11:15:38.397Z,10.25
2023-01-03T11:18:16.346Z,6.28
2023-01-03T11:20:54.487Z,6.80
2023-01-03T11:23:21.283Z,8.45
2023-01-03T11:25:56.741Z,9.40
2023-01-03T11:28:39.009Z,8.30
2023-01-03T11:31:08.481Z,9.23
2023-01-03T11:33:47.251Z,11.80
2023-01-03T11:36:26.397Z,10.23
2023-01-03T11:39:32.532Z,9.43
2023-01-03T11:42:11.655Z,6.35
2023-01-03T11:44:57.440Z,9.10
2023-01-03T11:47:32.773Z,8.60
2023-01-03T11:50:20.632Z,6.25
2023-01-03T11:53:06.596Z,9.63
2023-01-03T11:55:58.481Z,4.85
2023-01-03T11:58:25.266Z,11.85
2023-01-03T12:01:21.000Z,8.43
2023-01-03T12:03:59.250Z,6.40
2023-01-03T12:07:14.327Z,8.23
2023-01-03T12:09:49.857Z,6.53
2023-01-03T12:12:26.013Z,6.45
2023-01-03T12:15:48.492Z,7.03
2023-01-03T12:19:12.532Z,7.57
2023-01-03T12:21:42.838Z,8.30
2023-01-03T12:24:44.776Z,6.00
2023-01-03T12:27:17.524Z,6.97
2023-01-03T12:29:47.909Z,4.18
2023-01-03T12:32:17.114Z,6.13
2023-01-03T12:35:03.626Z,5.70
2023-01-03T12:37:30.853Z,5.50
2023-01-03T12:40:00.343Z,4.45
2023-01-03T12:42:33.203Z,5.60
2023-01-03T12:45:09.763Z,6.18
2023-01-03T12:47:49.036Z,6.97
2023-01-03T12:50:27.702Z,7.13
2023-01-03T12:52:58.703Z,4.97
2023-01-03T12:55:35.030Z,5.80
2023-01-03T12:58:20.270Z,7.00
2023-01-03T13:00:58.746Z,24.00
2023-01-03T13:03:42.508Z,11.32
2023-01-03T13:06:29.901Z,16.35
2023-01-03T13:09:04.521Z,7.90
2023-01-03T13:11:37.451Z,5.90
2023-01-03T13:14:20.971Z,7.63
2023-01-03T13:16:52.289Z,8.10
2023-01-03T13:19:22.258Z,12.10
2023-01-03T13:21:55.159Z,6.63
2023-01-03T13:24:47.152Z,8.23
2023-01-03T13:27:20.003Z,9.90
2023-01-03T13:29:49.590Z,8.48
2023-01-03T13:32:22.860Z,5.35
2023-01-03T13:34:58.931Z,7.30
2023-01-03T13:37:45.774Z,6.93
2023-01-03T13:40:39.389Z,14.68
2023-01-03T13:43:20.564Z,11.82
2023-01-03T13:45:48.439Z,8.10
2023-01-03T13:48:17.153Z,13.52
2023-01-03T13:51:25.568Z,15.88
2023-01-03T13:54:18.709Z,22.20
2023-01-03T13:56:45.577Z,27.40
2023-01-03T13:59:15.526Z,28.80
2023-01-03T14:02:07.233Z,19.65
2023-01-03T14:04:53.044Z,21.52
2023-01-03T14:07:22.853Z,18.00
2023-01-03T14:10:17.178Z,22.70
2023-01-03T14:13:05.694Z,23.17
2023-01-03T14:15:33.073Z,25.63
2023-01-03T14:18:36.881Z,17.40
2023-01-03T14:21:06.499Z,22.85
2023-01-03T14:26:23.260Z,33.78
2023-01-03T14:28:51.505Z,37.40
2023-01-03T14:31:26.786Z,35.78
2023-01-03T14:33:58.576Z,31.23
2023-01-03T14:36:25.757Z,35.80
2023-01-03T14:39:01.733Z,47.20
2023-01-03T14:41:28.480Z,42.78
2023-01-03T14:44:07.296Z,41.17
2023-01-03T14:46:34.283Z,46.83
2023-01-03T14:49:03.610Z,38.50
2023-01-03T14:51:34.837Z,35.90
2023-01-03T14:54:02.193Z,41.38
2023-01-03T14:56:29.156Z,47.25
2023-01-03T14:58:56.009Z,52.72
2023-01-03T15:01:23.141Z,55.50
2023-01-03T15:03:50.677Z,60.42
2023-01-03T15:06:20.448Z,64.63
2023-01-03T15:08:48.957Z,64.80
2023-01-03T15:11:15.794Z,42.55
2023-01-03T15:13:45.309Z,44.65
2023-01-03T15:16:35.571Z,29.80
2023-01-03T15:19:34.645Z,32.97
2023-01-03T15:22:24.101Z,41.70
2023-01-03T15:25:01.606Z,34.78
2023-01-03T15:27:32.412Z,48.47
2023-01-03T15:32:49.756Z,76.07
2023-01-03T15:35:40.282Z,64.70
2023-01-03T15:38:14.458Z,121.85
2023-01-03T15:40:41.398Z,94.75
2023-01-03T15:43:19.969Z,89.25
2023-01-03T15:46:22.065Z,63.33
2023-01-03T15:48:54.973Z,72.03
2023-01-03T15:51:21.693Z,56.50
2023-01-03T15:53:48.460Z,53.75
2023-01-03T15:56:15.265Z,66.18
2023-01-03T15:58:42.080Z,60.90
2023-01-03T16:01:09.100Z,63.42
2023-01-03T16:03:36.195Z,62.63
2023-01-03T16:06:03.171Z,68.30
2023-01-03T16:08:37.716Z,64.80
2023-01-03T16:11:06.417Z,70.63
2023-01-03T16:13:38.850Z,81.32
2023-01-03T16:16:06.882Z,80.00
2023-01-03T16:18:36.794Z,66.18
2023-01-03T16:21:04.677Z,75.38
2023-01-03T16:23:32.226Z,82.80
2023-01-03T16:25:59.295Z,76.57
2023-01-03T16:28:26.369Z,64.82
2023-01-03T16:31:15.752Z,62.55
2023-01-03T16:33:43.063Z,72.97
2023-01-03T16:36:32.472Z,75.30
2023-01-03T16:39:00.095Z,131.52
2023-01-03T16:41:26.954Z,110.43
2023-01-03T16:43:54.448Z,64.75
2023-01-03T16:46:25.517Z,61.55
2023-01-03T16:48:53.160Z,66.10
2023-01-03T16:51:31.254Z,72.68
2023-01-03T16:53:58.391Z,66.55
2023-01-03T16:56:25.432Z,50.00
2023-01-03T16:58:52.704Z,56.97
2023-01-03T17:01:20.275Z,45.03
2023-01-03T17:03:47.170Z,49.55
2023-01-03T17:06:38.263Z,42.22
2023-01-03T17:09:22.770Z,54.65
2023-01-03T17:11:49.595Z,54.97
2023-01-03T17:14:20.911Z,52.67
2023-01-03T17:16:48.057Z,64.35
2023-01-03T17:20:02.240Z,69.07
2023-01-03T17:22:19.155Z,66.00
2023-01-03T17:24:46.328Z,69.35
2023-01-03T17:27:25.015Z,71.85
2023-01-03T17:30:00.045Z,72.32
2023-01-03T17:32:26.847Z,81.40
2023-01-03T17:34:53.619Z,69.38
2023-01-03T17:37:20.772Z,69.60
2023-01-03T17:39:54.437Z,90.68
2023-01-03T17:42:22.932Z,79.55
2023-01-03T17:45:08.902Z,76.15
2023-01-03T17:47:57.350Z,76.75
2023-01-03T17:50:24.288Z,74.40
2023-01-03T17:52:55.571Z,94.93
2023-01-03T17:55:27.700Z,100.65
2023-01-03T17:57:55.209Z,107.65
2023-01-03T18:00:24.377Z,124.85
2023-01-03T18:02:51.571Z,110.25
2023-01-03T18:05:26.573Z,68.95
2023-01-03T18:07:57.543Z,58.75
2023-01-03T18:10:41.848Z,60.72
2023-01-03T18:13:31.873Z,60.63
2023-01-03T18:15:59.065Z,60.22
2023-01-03T18:18:26.452Z,59.83
2023-01-03T18:20:53.294Z,58.20
2023-01-03T18:23:29.634Z,63.05
2023-01-03T18:25:58.628Z,63.58
2023-01-03T18:28:26.294Z,60.20
2023-01-03T18:30:53.925Z,55.00
2023-01-03T18:33:20.987Z,47.67
2023-01-03T18:35:48.122Z,53.45
2023-01-03T18:38:26.326Z,53.22
2023-01-03T18:40:56.068Z,50.45
2023-01-03T18:43:27.480Z,58.33
2023-01-03T18:45:54.355Z,45.40
2023-01-03T18:48:22.046Z,53.38
2023-01-03T18:50:55.870Z,59.25
2023-01-03T18:53:26.536Z,54.90
2023-01-03T18:55:53.335Z,48.42
2023-01-03T18:58:42.317Z,47.03
2023-01-03T19:01:10.235Z,50.75
2023-01-03T19:03:37.570Z,70.93
2023-01-03T19:06:10.952Z,61.25
2023-01-03T19:08:37.701Z,65.68
2023-01-03T19:11:07.910Z,59.83
2023-01-03T19:13:50.734Z,59.78
2023-01-03T19:16:22.835Z,68.22
2023-01-03T19:18:49.927Z,69.43
2023-01-03T19:21:16.987Z,65.28
2023-01-03T19:23:45.071Z,55.65
2023-01-03T19:26:39.304Z,68.07
2023-01-03T19:29:07.218Z,59.35
2023-01-03T19:31:44.302Z,74.13
2023-01-03T19:34:21.490Z,77.95
2023-01-03T19:36:48.419Z,77.30
2023-01-03T19:39:15.496Z,88.55
2023-01-03T19:42:06.059Z,79.53
2023-01-03T19:44:33.063Z,74.18
2023-01-03T19:47:00.145Z,84.22
2023-01-03T19:49:27.001Z,95.25
2023-01-03T19:51:53.933Z,104.20
2023-01-03T19:54:20.786Z,98.70
2023-01-03T19:56:47.575Z,88.15
2023-01-03T19:59:25.072Z,113.03
2023-01-03T20:02:23.412Z,77.40
2023-01-03T20:04:38.804Z,66.93
2023-01-03T20:07:13.321Z,63.85
2023-01-03T20:09:42.919Z,65.78
2023-01-03T20:12:12.514Z,72.47
2023-01-03T20:14:41.595Z,86.35
2023-01-03T20:17:18.360Z,78.40
2023-01-03T20:19:45.201Z,79.72
2023-01-03T20:22:24.657Z,66.03
2023-01-03T20:24:58.783Z,57.55
2023-01-03T20:27:25.646Z,55.20
2023-01-03T20:29:52.537Z,55.40
2023-01-03T20:32:19.361Z,62.35
2023-01-03T20:34:46.561Z,58.58
2023-01-03T20:37:16.146Z,63.25
2023-01-03T20:39:43.046Z,58.13
2023-01-03T20:42:21.942Z,58.72
2023-01-03T20:44:48.987Z,62.50
2023-01-03T20:47:24.173Z,70.10
2023-01-03T20:49:51.031Z,88.47
2023-01-03T20:52:20.968Z,114.45
2023-01-03T20:54:47.711Z,152.63
2023-01-03T20:57:15.713Z,181.88
2023-01-03T20:59:42.728Z,182.60
2023-01-03T21:02:10.769Z,196.02
2023-01-03T21:04:38.506Z,190.55
2023-01-03T21:07:11.405Z,192.65
2023-01-03T21:09:41.738Z,178.60
2023-01-03T21:12:08.552Z,183.65
2023-01-03T21:14:35.310Z,180.95
2023-01-03T21:17:02.130Z,182.10
2023-01-03T21:19:28.866Z,206.05
2023-01-03T21:21:55.708Z,190.32
2023-01-03T21:24:23.717Z,199.95
2023-01-03T21:26:50.687Z,181.48
2023-01-03T21:29:17.463Z,189.32
2023-01-03T21:31:44.536Z,206.10
2023-01-03T21:34:17.136Z,203.43
2023-01-03T21:36:44.027Z,205.95
2023-01-03T21:39:11.069Z,199.00
2023-01-03T21:41:57.926Z,214.80
2023-01-03T21:44:24.797Z,195.43
2023-01-03T21:46:51.634Z,187.27
2023-01-03T21:49:18.643Z,177.77
2023-01-03T21:51:45.467Z,161.85
2023-01-03T21:54:12.833Z,153.52
2023-01-03T21:56:45.702Z,154.88
2023-01-03T21:59:16.525Z,117.18
2023-01-03T22:02:03.297Z,117.90
2023-01-03T22:04:30.703Z,83.43
2023-01-03T22:07:00.677Z,75.65
2023-01-03T22:09:47.149Z,57.30
2023-01-03T22:12:15.771Z,52.00
2023-01-03T22:14:44.208Z,60.60
2023-01-03T22:17:11.053Z,49.55
2023-01-03T22:19:37.823Z,58.42
2023-01-03T22:22:04.965Z,51.40
2023-01-03T22:24:31.824Z,52.72
2023-01-03T22:26:58.673Z,53.97
2023-01-03T22:29:25.491Z,48.75
2023-01-03T22:31:52.316Z,44.00
2023-01-03T22:34:19.194Z,47.25
2023-01-03T22:36:45.998Z,49.70
2023-01-03T22:39:12.938Z,49.15
2023-01-03T22:41:39.770Z,54.97
2023-01-03T22:44:06.603Z,79.13
2023-01-03T22:46:33.369Z,73.10
2023-01-03T22:49:00.151Z,97.85
2023-01-03T22:51:27.072Z,78.57
2023-01-03T22:53:54.122Z,86.38
2023-01-03T22:56:20.940Z,75.45
2023-01-03T22:58:47.793Z,79.07
2023-01-03T23:01:16.515Z,81.93
2023-01-03T23:03:44.350Z,89.22
2023-01-03T23:06:15.646Z,96.53
2023-01-03T23:08:42.484Z,88.65
2023-01-03T23:11:33.982Z,113.93
2023-01-03T23:14:05.963Z,112.32
2023-01-03T23:16:32.832Z,109.93
2023-01-03T23:19:01.483Z,109.32
2023-01-03T23:21:28.284Z,107.45
2023-01-03T23:23:55.093Z,106.50
2023-01-03T23:26:21.871Z,124.15
2023-01-03T23:28:48.666Z,88.05
2023-01-03T23:31:15.585Z,71.50
2023-01-03T23:33:42.444Z,64.70
2023-01-03T23:36:10.001Z,55.88
2023-01-03T23:38:36.957Z,54.85
2023-01-03T23:41:07.370Z,60.47
2023-01-03T23:43:34.448Z,66.65
2023-01-03T23:46:01.405Z,67.00
2023-01-03T23:48:28.487Z,71.43
2023-01-03T23:51:04.838Z,111.68
2023-01-03T23:53:31.730Z,205.15
2023-01-03T23:55:58.558Z,210.25
2023-01-03T23:58:25.560Z,192.75
